Black River (Missouri), Williamsville (07062575)

StateMissouriLatestLow (1570 cfs)
RiverBlack RiverRatingObservedEstimated
Updated2021-02-27 14:30 (57 minutes ago)Flood - The river is flooding. Obstacles can be treacherous or deadly. The river should be avoided at this stage for casual trips and definitely for the inexperienced. Trips should be attempted only with protective gear and equipment.Flood(none)4907
Discharge1570 cfs (median: 983 cfs)High - The river is high and potentially dangerous, especially for the young and / or inexperienced. Normal stream obstacles are sometimes difficult to navigate. Extended distances can be attempted, but canoe travel may not be advisable.High(none)2697
Height5.09 feetGood - Conditions are ideal for a canoe or kayak. Boats typically will drag on fewer than one-quarter of riffles, if at all, and portages are unnecessary or rare. Normal float lengths can be attempted without a problem.Good(none)1904
TrendSteady (falling over 24 hours)Low - River is low but can still be floated. Some riffles are okay but most come with significant dragging and might need a portage. Float lengths should be reduced to accommodate low flow, dragging, and portages.Low(none)637
USGSExternal icon USGS Site (External icon Google Maps)Poor - River is too low to float comfortably. Most or all riffles will drag or must be portaged and some obstacles (such as slick shelf rock) cause undue problems. Avoid the river at this stage for casual paddling trips.Poor(none)298

Trending Data

Plot Image

Trips for Black River (Missouri), Williamsville (07062575)

DateStartEndDistanceConditionDischargeHeightFishingDetails

A total of 0 rows are displayed.

Condition Descriptions

Fishing Conditions

Fish Species

Notes

Classic Trip List

The classic River Trips application is still available for use. It is updated with the new system using a data retrofit. It is no longer maintained. The original River Trips application is no longer updated (as of 1 Dec 2016) but can be checked for errors or for the condition of the data before it was converted to the new system.

Gauge Data Table

ObservationHeightDischargeMaximum
Discharge
Minimum
Discharge
Mean
Discharge
P05P10P20P25P50
(Median)
P75P80P90P95
2021-02-27 14:30 5.09 1570 3830 (2019) 476 (2017) 1630 522 692 752 983 2460 3020 3810
2021-02-27 13:30 5.10 1570 3830 (2019) 476 (2017) 1630 522 692 752 983 2460 3020 3810
2021-02-27 12:30 5.10 1570 3830 (2019) 476 (2017) 1630 522 692 752 983 2460 3020 3810
2021-02-27 11:30 5.11 1580 3830 (2019) 476 (2017) 1630 522 692 752 983 2460 3020 3810
2021-02-27 10:30 5.12 1590 3830 (2019) 476 (2017) 1630 522 692 752 983 2460 3020 3810
2021-02-27 09:30 5.13 1600 3830 (2019) 476 (2017) 1630 522 692 752 983 2460 3020 3810
2021-02-27 08:30 5.14 1610 3830 (2019) 476 (2017) 1630 522 692 752 983 2460 3020 3810
2021-02-27 07:30 5.15 1610 3830 (2019) 476 (2017) 1630 522 692 752 983 2460 3020 3810
2021-02-27 06:30 5.17 1630 3830 (2019) 476 (2017) 1630 522 692 752 983 2460 3020 3810
2021-02-27 05:30 5.20 1650 3830 (2019) 476 (2017) 1630 522 692 752 983 2460 3020 3810
2021-02-27 04:30 5.23 1680 3830 (2019) 476 (2017) 1630 522 692 752 983 2460 3020 3810
2021-02-27 03:30 5.27 1710 3830 (2019) 476 (2017) 1630 522 692 752 983 2460 3020 3810
2021-02-27 02:30 5.32 1750 3830 (2019) 476 (2017) 1630 522 692 752 983 2460 3020 3810
2021-02-27 01:30 5.39 1810 3830 (2019) 476 (2017) 1630 522 692 752 983 2460 3020 3810
2021-02-27 00:30 5.47 1880 3830 (2019) 476 (2017) 1630 522 692 752 983 2460 3020 3810
2021-02-26 23:30 5.56 1960 3850 (2019) 476 (2017) 1460 524 713 778 1140 2060 2210 3390
2021-02-26 22:30 5.64 2030 3850 (2019) 476 (2017) 1460 524 713 778 1140 2060 2210 3390
2021-02-26 21:30 5.67 2050 3850 (2019) 476 (2017) 1460 524 713 778 1140 2060 2210 3390
2021-02-26 20:30 5.67 2050 3850 (2019) 476 (2017) 1460 524 713 778 1140 2060 2210 3390
2021-02-26 19:30 5.65 2040 3850 (2019) 476 (2017) 1460 524 713 778 1140 2060 2210 3390
2021-02-26 18:30 5.61 2000 3850 (2019) 476 (2017) 1460 524 713 778 1140 2060 2210 3390
2021-02-26 17:30 5.55 1950 3850 (2019) 476 (2017) 1460 524 713 778 1140 2060 2210 3390
2021-02-26 16:30 5.48 1890 3850 (2019) 476 (2017) 1460 524 713 778 1140 2060 2210 3390
2021-02-26 15:30 5.40 1820 3850 (2019) 476 (2017) 1460 524 713 778 1140 2060 2210 3390
2021-02-26 14:30 5.31 1740 3850 (2019) 476 (2017) 1460 524 713 778 1140 2060 2210 3390
2021-02-26 13:30 5.26 1700 3850 (2019) 476 (2017) 1460 524 713 778 1140 2060 2210 3390
2021-02-26 12:30 5.23 1680 3850 (2019) 476 (2017) 1460 524 713 778 1140 2060 2210 3390
2021-02-26 11:30 5.23 1680 3850 (2019) 476 (2017) 1460 524 713 778 1140 2060 2210 3390
2021-02-26 10:30 5.23 1680 3850 (2019) 476 (2017) 1460 524 713 778 1140 2060 2210 3390
2021-02-26 09:30 5.24 1690 3850 (2019) 476 (2017) 1460 524 713 778 1140 2060 2210 3390
2021-02-26 08:30 5.24 1690 3850 (2019) 476 (2017) 1460 524 713 778 1140 2060 2210 3390
2021-02-26 07:30 5.24 1690 3850 (2019) 476 (2017) 1460 524 713 778 1140 2060 2210 3390
2021-02-26 06:30 5.25 1700 3850 (2019) 476 (2017) 1460 524 713 778 1140 2060 2210 3390
2021-02-26 05:30 5.26 1700 3850 (2019) 476 (2017) 1460 524 713 778 1140 2060 2210 3390
2021-02-26 04:30 5.28 1720 3850 (2019) 476 (2017) 1460 524 713 778 1140 2060 2210 3390
2021-02-26 03:30 5.30 1740 3850 (2019) 476 (2017) 1460 524 713 778 1140 2060 2210 3390
2021-02-26 02:30 5.33 1760 3850 (2019) 476 (2017) 1460 524 713 778 1140 2060 2210 3390
2021-02-26 01:30 5.37 1800 3850 (2019) 476 (2017) 1460 524 713 778 1140 2060 2210 3390
2021-02-26 00:30 5.42 1840 3850 (2019) 476 (2017) 1460 524 713 778 1140 2060 2210 3390
2021-02-25 23:30 5.48 1890 3600 (2019) 495 (2017) 1460 529 639 689 1150 2060 2590 3470
2021-02-25 22:30 5.54 1940 3600 (2019) 495 (2017) 1460 529 639 689 1150 2060 2590 3470
2021-02-25 21:30 5.58 1980 3600 (2019) 495 (2017) 1460 529 639 689 1150 2060 2590 3470
2021-02-25 20:30 5.57 1970 3600 (2019) 495 (2017) 1460 529 639 689 1150 2060 2590 3470
2021-02-25 19:30 5.54 1940 3600 (2019) 495 (2017) 1460 529 639 689 1150 2060 2590 3470
2021-02-25 18:30 5.47 1880 3600 (2019) 495 (2017) 1460 529 639 689 1150 2060 2590 3470
2021-02-25 17:30 5.39 1810 3600 (2019) 495 (2017) 1460 529 639 689 1150 2060 2590 3470
2021-02-25 16:30 5.27 1710 3600 (2019) 495 (2017) 1460 529 639 689 1150 2060 2590 3470
2021-02-25 15:30 5.14 1610 3600 (2019) 495 (2017) 1460 529 639 689 1150 2060 2590 3470
2021-02-25 14:30 5.02 1510 3600 (2019) 495 (2017) 1460 529 639 689 1150 2060 2590 3470
2021-02-25 13:30 4.93 1440 3600 (2019) 495 (2017) 1460 529 639 689 1150 2060 2590 3470
2021-02-25 12:30 4.90 1420 3600 (2019) 495 (2017) 1460 529 639 689 1150 2060 2590 3470
2021-02-25 11:30 4.90 1420 3600 (2019) 495 (2017) 1460 529 639 689 1150 2060 2590 3470
2021-02-25 10:30 4.90 1420 3600 (2019) 495 (2017) 1460 529 639 689 1150 2060 2590 3470
2021-02-25 09:30 4.90 1420 3600 (2019) 495 (2017) 1460 529 639 689 1150 2060 2590 3470
2021-02-25 08:30 4.91 1420 3600 (2019) 495 (2017) 1460 529 639 689 1150 2060 2590 3470
2021-02-25 07:30 4.91 1420 3600 (2019) 495 (2017) 1460 529 639 689 1150 2060 2590 3470
2021-02-25 06:30 4.91 1420 3600 (2019) 495 (2017) 1460 529 639 689 1150 2060 2590 3470
2021-02-25 05:30 4.92 1430 3600 (2019) 495 (2017) 1460 529 639 689 1150 2060 2590 3470
2021-02-25 04:30 4.92 1430 3600 (2019) 495 (2017) 1460 529 639 689 1150 2060 2590 3470
2021-02-25 03:30 4.92 1430 3600 (2019) 495 (2017) 1460 529 639 689 1150 2060 2590 3470
2021-02-25 02:30 4.92 1430 3600 (2019) 495 (2017) 1460 529 639 689 1150 2060 2590 3470
2021-02-25 01:30 4.92 1430 3600 (2019) 495 (2017) 1460 529 639 689 1150 2060 2590 3470
2021-02-25 00:30 4.92 1430 3600 (2019) 495 (2017) 1460 529 639 689 1150 2060 2590 3470
2021-02-24 23:30 4.92 1430 3630 (2019) 553 (2011) 1340 569 623 660 1130 1650 1840 3170
2021-02-24 22:30 4.91 1420 3630 (2019) 553 (2011) 1340 569 623 660 1130 1650 1840 3170
2021-02-24 21:30 4.91 1420 3630 (2019) 553 (2011) 1340 569 623 660 1130 1650 1840 3170
2021-02-24 20:30 4.91 1420 3630 (2019) 553 (2011) 1340 569 623 660 1130 1650 1840 3170
2021-02-24 19:30 4.91 1420 3630 (2019) 553 (2011) 1340 569 623 660 1130 1650 1840 3170
2021-02-24 18:30 4.90 1420 3630 (2019) 553 (2011) 1340 569 623 660 1130 1650 1840 3170
2021-02-24 17:30 4.89 1410 3630 (2019) 553 (2011) 1340 569 623 660 1130 1650 1840 3170
2021-02-24 16:30 4.89 1410 3630 (2019) 553 (2011) 1340 569 623 660 1130 1650 1840 3170
2021-02-24 15:30 4.88 1400 3630 (2019) 553 (2011) 1340 569 623 660 1130 1650 1840 3170
2021-02-24 14:30 4.87 1390 3630 (2019) 553 (2011) 1340 569 623 660 1130 1650 1840 3170
2021-02-24 13:30 4.86 1390 3630 (2019) 553 (2011) 1340 569 623 660 1130 1650 1840 3170
2021-02-24 12:30 4.86 1390 3630 (2019) 553 (2011) 1340 569 623 660 1130 1650 1840 3170
2021-02-24 11:30 4.86 1390 3630 (2019) 553 (2011) 1340 569 623 660 1130 1650 1840 3170
2021-02-24 10:30 4.85 1380 3630 (2019) 553 (2011) 1340 569 623 660 1130 1650 1840 3170
2021-02-24 09:30 4.84 1370 3630 (2019) 553 (2011) 1340 569 623 660 1130 1650 1840 3170
2021-02-24 08:30 4.84 1370 3630 (2019) 553 (2011) 1340 569 623 660 1130 1650 1840 3170
2021-02-24 07:30 4.82 1360 3630 (2019) 553 (2011) 1340 569 623 660 1130 1650 1840 3170
2021-02-24 06:30 4.81 1350 3630 (2019) 553 (2011) 1340 569 623 660 1130 1650 1840 3170
2021-02-24 05:30 4.79 1330 3630 (2019) 553 (2011) 1340 569 623 660 1130 1650 1840 3170
2021-02-24 04:30 4.77 1320 3630 (2019) 553 (2011) 1340 569 623 660 1130 1650 1840 3170
2021-02-24 03:30 4.75 1300 3630 (2019) 553 (2011) 1340 569 623 660 1130 1650 1840 3170
2021-02-24 02:30 4.73 1290 3630 (2019) 553 (2011) 1340 569 623 660 1130 1650 1840 3170
2021-02-24 01:30 4.71 1270 3630 (2019) 553 (2011) 1340 569 623 660 1130 1650 1840 3170
2021-02-24 00:30 4.68 1250 3630 (2019) 553 (2011) 1340 569 623 660 1130 1650 1840 3170
2021-02-23 23:30 4.64 1220 3710 (2019) 482 (2017) 1350 526 649 686 1130 1660 1810 3190
2021-02-23 22:30 4.61 1200 3710 (2019) 482 (2017) 1350 526 649 686 1130 1660 1810 3190
2021-02-23 21:30 4.59 1190 3710 (2019) 482 (2017) 1350 526 649 686 1130 1660 1810 3190
2021-02-23 20:30 4.55 1160 3710 (2019) 482 (2017) 1350 526 649 686 1130 1660 1810 3190
2021-02-23 19:30 4.52 1140 3710 (2019) 482 (2017) 1350 526 649 686 1130 1660 1810 3190
2021-02-23 18:30 4.48 1110 3710 (2019) 482 (2017) 1350 526 649 686 1130 1660 1810 3190
2021-02-23 17:30 4.44 1080 3710 (2019) 482 (2017) 1350 526 649 686 1130 1660 1810 3190
2021-02-23 16:30 4.39 1040 3710 (2019) 482 (2017) 1350 526 649 686 1130 1660 1810 3190
2021-02-23 15:30 4.34 1010 3710 (2019) 482 (2017) 1350 526 649 686 1130 1660 1810 3190
2021-02-23 14:30 4.30 983 3710 (2019) 482 (2017) 1350 526 649 686 1130 1660 1810 3190
2021-02-23 13:30 4.28 970 3710 (2019) 482 (2017) 1350 526 649 686 1130 1660 1810 3190
2021-02-23 12:30 4.28 970 3710 (2019) 482 (2017) 1350 526 649 686 1130 1660 1810 3190
2021-02-23 11:30 4.28 970 3710 (2019) 482 (2017) 1350 526 649 686 1130 1660 1810 3190
2021-02-23 10:30 4.28 970 3710 (2019) 482 (2017) 1350 526 649 686 1130 1660 1810 3190
2021-02-23 09:30 4.29 977 3710 (2019) 482 (2017) 1350 526 649 686 1130 1660 1810 3190
2021-02-23 08:30 4.29 977 3710 (2019) 482 (2017) 1350 526 649 686 1130 1660 1810 3190
2021-02-23 07:30 4.30 983 3710 (2019) 482 (2017) 1350 526 649 686 1130 1660 1810 3190
2021-02-23 06:30 4.31 990 3710 (2019) 482 (2017) 1350 526 649 686 1130 1660 1810 3190
2021-02-23 05:30 4.32 997 3710 (2019) 482 (2017) 1350 526 649 686 1130 1660 1810 3190
2021-02-23 04:30 4.33 1000 3710 (2019) 482 (2017) 1350 526 649 686 1130 1660 1810 3190
2021-02-23 03:30 4.35 1020 3710 (2019) 482 (2017) 1350 526 649 686 1130 1660 1810 3190
2021-02-23 02:30 4.36 1020 3710 (2019) 482 (2017) 1350 526 649 686 1130 1660 1810 3190
2021-02-23 01:30 4.36 1020 3710 (2019) 482 (2017) 1350 526 649 686 1130 1660 1810 3190
2021-02-23 00:30 4.35 1020 3710 (2019) 482 (2017) 1350 526 649 686 1130 1660 1810 3190
2021-02-22 23:30 4.32 997 3710 (2019) 459 (2017) 1450 510 734 806 1120 2100 2360 3350
2021-02-22 22:30 4.30 983 3710 (2019) 459 (2017) 1450 510 734 806 1120 2100 2360 3350
2021-02-22 21:30 4.30 983 3710 (2019) 459 (2017) 1450 510 734 806 1120 2100 2360 3350
2021-02-22 20:30 4.30 983 3710 (2019) 459 (2017) 1450 510 734 806 1120 2100 2360 3350
2021-02-22 19:30 4.31 990 3710 (2019) 459 (2017) 1450 510 734 806 1120 2100 2360 3350
2021-02-22 18:30 4.33 1000 3710 (2019) 459 (2017) 1450 510 734 806 1120 2100 2360 3350
2021-02-22 17:30 4.35 1020 3710 (2019) 459 (2017) 1450 510 734 806 1120 2100 2360 3350
2021-02-22 16:30 4.37 1030 3710 (2019) 459 (2017) 1450 510 734 806 1120 2100 2360 3350
2021-02-22 15:30 4.38 1040 3710 (2019) 459 (2017) 1450 510 734 806 1120 2100 2360 3350
2021-02-22 14:30 4.39 1040 3710 (2019) 459 (2017) 1450 510 734 806 1120 2100 2360 3350
2021-02-22 13:30 4.40 1050 3710 (2019) 459 (2017) 1450 510 734 806 1120 2100 2360 3350
2021-02-22 12:30 4.40 1050 3710 (2019) 459 (2017) 1450 510 734 806 1120 2100 2360 3350
2021-02-22 11:30 4.40 1050 3710 (2019) 459 (2017) 1450 510 734 806 1120 2100 2360 3350
2021-02-22 10:30 4.39 1040 3710 (2019) 459 (2017) 1450 510 734 806 1120 2100 2360 3350
2021-02-22 09:30 4.39 1040 3710 (2019) 459 (2017) 1450 510 734 806 1120 2100 2360 3350
2021-02-22 08:30 4.39 1040 3710 (2019) 459 (2017) 1450 510 734 806 1120 2100 2360 3350
2021-02-22 07:30 4.38 1040 3710 (2019) 459 (2017) 1450 510 734 806 1120 2100 2360 3350
2021-02-22 06:30 4.38 1040 3710 (2019) 459 (2017) 1450 510 734 806 1120 2100 2360 3350
2021-02-22 05:30 4.38 1040 3710 (2019) 459 (2017) 1450 510 734 806 1120 2100 2360 3350
2021-02-22 04:30 4.38 1040 3710 (2019) 459 (2017) 1450 510 734 806 1120 2100 2360 3350
2021-02-22 03:30 4.38 1040 3710 (2019) 459 (2017) 1450 510 734 806 1120 2100 2360 3350
2021-02-22 02:30 4.38 1040 3710 (2019) 459 (2017) 1450 510 734 806 1120 2100 2360 3350
2021-02-22 01:30 4.38 1040 3710 (2019) 459 (2017) 1450 510 734 806 1120 2100 2360 3350
2021-02-22 00:30 4.38 1040 3710 (2019) 459 (2017) 1450 510 734 806 1120 2100 2360 3350
2021-02-21 23:30 4.37 1030 2540 (2009) 480 (2017) 1340 536 706 747 1060 2070 2300 2530
2021-02-21 22:30 4.37 1030 2540 (2009) 480 (2017) 1340 536 706 747 1060 2070 2300 2530
2021-02-21 21:30 4.37 1030 2540 (2009) 480 (2017) 1340 536 706 747 1060 2070 2300 2530
2021-02-21 20:30 4.37 1030 2540 (2009) 480 (2017) 1340 536 706 747 1060 2070 2300 2530
2021-02-21 19:30 4.36 1020 2540 (2009) 480 (2017) 1340 536 706 747 1060 2070 2300 2530
2021-02-21 18:30 4.36 1020 2540 (2009) 480 (2017) 1340 536 706 747 1060 2070 2300 2530
2021-02-21 17:30 4.36 1020 2540 (2009) 480 (2017) 1340 536 706 747 1060 2070 2300 2530
2021-02-21 16:30 4.36 1020 2540 (2009) 480 (2017) 1340 536 706 747 1060 2070 2300 2530
2021-02-21 15:30 4.36 1020 2540 (2009) 480 (2017) 1340 536 706 747 1060 2070 2300 2530
2021-02-21 14:30 4.36 1020 2540 (2009) 480 (2017) 1340 536 706 747 1060 2070 2300 2530
2021-02-21 13:30 4.36 1020 2540 (2009) 480 (2017) 1340 536 706 747 1060 2070 2300 2530
2021-02-21 12:30 4.36 1020 2540 (2009) 480 (2017) 1340 536 706 747 1060 2070 2300 2530
2021-02-21 11:30 4.36 1020 2540 (2009) 480 (2017) 1340 536 706 747 1060 2070 2300 2530
2021-02-21 10:30 4.35 1020 2540 (2009) 480 (2017) 1340 536 706 747 1060 2070 2300 2530
2021-02-21 09:30 4.35 1020 2540 (2009) 480 (2017) 1340 536 706 747 1060 2070 2300 2530
2021-02-21 08:30 4.35 1020 2540 (2009) 480 (2017) 1340 536 706 747 1060 2070 2300 2530
2021-02-21 07:30 4.35 1020 2540 (2009) 480 (2017) 1340 536 706 747 1060 2070 2300 2530
2021-02-21 06:30 4.35 1020 2540 (2009) 480 (2017) 1340 536 706 747 1060 2070 2300 2530
2021-02-21 05:30 4.35 1020 2540 (2009) 480 (2017) 1340 536 706 747 1060 2070 2300 2530
2021-02-21 04:30 4.35 1020 2540 (2009) 480 (2017) 1340 536 706 747 1060 2070 2300 2530
2021-02-21 03:30 4.36 1020 2540 (2009) 480 (2017) 1340 536 706 747 1060 2070 2300 2530
2021-02-21 02:30 4.36 1020 2540 (2009) 480 (2017) 1340 536 706 747 1060 2070 2300 2530
2021-02-21 01:30 4.36 1020 2540 (2009) 480 (2017) 1340 536 706 747 1060 2070 2300 2530
2021-02-21 00:30 4.36 1020 2540 (2009) 480 (2017) 1340 536 706 747 1060 2070 2300 2530
2021-02-20 23:30 4.36 1020 4220 (2019) 455 (2017) 1450 470 534 606 875 1960 2730 4030
2021-02-20 22:30 4.36 1020 4220 (2019) 455 (2017) 1450 470 534 606 875 1960 2730 4030
2021-02-20 21:30 4.36 1020 4220 (2019) 455 (2017) 1450 470 534 606 875 1960 2730 4030
2021-02-20 20:30 4.35 1020 4220 (2019) 455 (2017) 1450 470 534 606 875 1960 2730 4030
2021-02-20 19:30 4.35 1020 4220 (2019) 455 (2017) 1450 470 534 606 875 1960 2730 4030
2021-02-20 18:30 4.35 1020 4220 (2019) 455 (2017) 1450 470 534 606 875 1960 2730 4030
2021-02-20 17:30 4.36 1020 4220 (2019) 455 (2017) 1450 470 534 606 875 1960 2730 4030
2021-02-20 16:30 4.36 1020 4220 (2019) 455 (2017) 1450 470 534 606 875 1960 2730 4030
2021-02-20 15:30 4.36 1020 4220 (2019) 455 (2017) 1450 470 534 606 875 1960 2730 4030
2021-02-20 14:30 4.35 1020 4220 (2019) 455 (2017) 1450 470 534 606 875 1960 2730 4030
2021-02-20 13:30 4.35 1020 4220 (2019) 455 (2017) 1450 470 534 606 875 1960 2730 4030
2021-02-20 12:30 4.35 1020 4220 (2019) 455 (2017) 1450 470 534 606 875 1960 2730 4030
2021-02-20 11:30 4.35 1020 4220 (2019) 455 (2017) 1450 470 534 606 875 1960 2730 4030
2021-02-20 10:30 4.35 1020 4220 (2019) 455 (2017) 1450 470 534 606 875 1960 2730 4030
2021-02-20 09:30 4.35 1020 4220 (2019) 455 (2017) 1450 470 534 606 875 1960 2730 4030
2021-02-20 08:30 4.35 1020 4220 (2019) 455 (2017) 1450 470 534 606 875 1960 2730 4030
2021-02-20 07:30 4.35 1020 4220 (2019) 455 (2017) 1450 470 534 606 875 1960 2730 4030
2021-02-20 06:30 4.35 1020 4220 (2019) 455 (2017) 1450 470 534 606 875 1960 2730 4030
2021-02-20 05:30 4.35 1020 4220 (2019) 455 (2017) 1450 470 534 606 875 1960 2730 4030
2021-02-20 04:30 4.35 1020 4220 (2019) 455 (2017) 1450 470 534 606 875 1960 2730 4030
2021-02-20 03:30 4.35 1020 4220 (2019) 455 (2017) 1450 470 534 606 875 1960 2730 4030
2021-02-20 02:30 4.35 1020 4220 (2019) 455 (2017) 1450 470 534 606 875 1960 2730 4030
2021-02-20 01:30 4.35 1020 4220 (2019) 455 (2017) 1450 470 534 606 875 1960 2730 4030
2021-02-20 00:30 4.34 1010 4220 (2019) 455 (2017) 1450 470 534 606 875 1960 2730 4030

A total of 183 rows are displayed for years 2009 through 2020.